sensor_id;sensor_type;location;lat;lon;timestamp;pressure;altitude;pressure_sealevel;temperature;humidity
8051;BME280;4068;42.158;24.732;2024-03-08T00:02:16;99813.72;;;6.32;100.00
8051;BME280;4068;42.158;24.732;2024-03-08T00:04:41;99841.53;;;6.52;100.00
8051;BME280;4068;42.158;24.732;2024-03-08T00:07:07;99835.47;;;6.50;100.00
8051;BME280;4068;42.158;24.732;2024-03-08T00:09:33;99836.25;;;6.52;100.00
8051;BME280;4068;42.158;24.732;2024-03-08T00:11:58;99838.06;;;6.51;100.00
8051;BME280;4068;42.158;24.732;2024-03-08T00:14:24;99827.56;;;6.50;100.00
8051;BME280;4068;42.158;24.732;2024-03-08T00:16:49;99825.03;;;6.48;100.00
8051;BME280;4068;42.158;24.732;2024-03-08T00:19:15;99831.91;;;6.51;100.00
8051;BME280;4068;42.158;24.732;2024-03-08T00:21:40;99821.06;;;6.41;100.00
8051;BME280;4068;42.158;24.732;2024-03-08T00:24:07;99799.34;;;6.37;100.00
8051;BME280;4068;42.158;24.732;2024-03-08T00:26:32;99788.41;;;6.29;100.00
8051;BME280;4068;42.158;24.732;2024-03-08T00:28:58;99827.56;;;6.50;100.00
8051;BME280;4068;42.158;24.732;2024-03-08T00:31:23;99835.13;;;6.56;100.00
8051;BME280;4068;42.158;24.732;2024-03-08T00:33:50;99825.72;;;6.52;100.00
8051;BME280;4068;42.158;24.732;2024-03-08T00:36:16;99830.06;;;6.53;100.00
8051;BME280;4068;42.158;24.732;2024-03-08T00:38:41;99835.31;;;6.53;100.00
8051;BME280;4068;42.158;24.732;2024-03-08T00:41:07;99829.59;;;6.61;100.00
8051;BME280;4068;42.158;24.732;2024-03-08T00:43:33;99834.84;;;6.61;100.00
8051;BME280;4068;42.158;24.732;2024-03-08T00:45:59;99834.56;;;6.65;100.00
8051;BME280;4068;42.158;24.732;2024-03-08T00:48:26;99833.44;;;6.55;100.00
8051;BME280;4068;42.158;24.732;2024-03-08T00:50:53;99834.66;;;6.49;100.00
8051;BME280;4068;42.158;24.732;2024-03-08T00:53:18;99833.44;;;6.55;100.00
8051;BME280;4068;42.158;24.732;2024-03-08T00:55:44;99838.59;;;6.56;100.00
8051;BME280;4068;42.158;24.732;2024-03-08T00:58:12;99809.69;;;6.41;100.00
8051;BME280;4068;42.158;24.732;2024-03-08T01:00:37;99792.66;;;6.32;100.00
8051;BME280;4068;42.158;24.732;2024-03-08T01:03:04;99797.53;;;6.38;100.00
8051;BME280;4068;42.158;24.732;2024-03-08T01:05:30;99808.19;;;6.51;100.00
8051;BME280;4068;42.158;24.732;2024-03-08T01:07:55;99827.22;;;6.56;100.00
8051;BME280;4068;42.158;24.732;2024-03-08T01:10:21;99821.88;;;6.57;100.00
8051;BME280;4068;42.158;24.732;2024-03-08T01:12:46;99820.75;;;6.62;100.00
8051;BME280;4068;42.158;24.732;2024-03-08T01:15:12;99823.66;;;6.57;100.00
8051;BME280;4068;42.158;24.732;2024-03-08T01:17:37;99820.84;;;6.60;100.00
8051;BME280;4068;42.158;24.732;2024-03-08T01:20:04;99813.97;;;6.57;100.00
8051;BME280;4068;42.158;24.732;2024-03-08T01:22:30;99823.19;;;6.50;100.00
8051;BME280;4068;42.158;24.732;2024-03-08T01:24:56;99795.84;;;6.37;100.00
8051;BME280;4068;42.158;24.732;2024-03-08T01:27:22;99801.59;;;6.44;100.00
8051;BME280;4068;42.158;24.732;2024-03-08T01:29:48;99828.16;;;6.55;100.00
8051;BME280;4068;42.158;24.732;2024-03-08T01:32:13;99823.44;;;6.46;100.00
8051;BME280;4068;42.158;24.732;2024-03-08T01:34:40;99820.91;;;6.44;100.00
8051;BME280;4068;42.158;24.732;2024-03-08T01:37:05;99795.72;;;6.24;100.00
8051;BME280;4068;42.158;24.732;2024-03-08T01:39:31;99832.69;;;6.53;100.00
8051;BME280;4068;42.158;24.732;2024-03-08T01:41:57;99831.16;;;6.49;100.00
8051;BME280;4068;42.158;24.732;2024-03-08T01:44:23;99798.94;;;6.29;100.00
8051;BME280;4068;42.158;24.732;2024-03-08T01:46:50;99835.31;;;6.53;100.00
8051;BME280;4068;42.158;24.732;2024-03-08T01:49:17;99831.38;;;6.60;100.00
8051;BME280;4068;42.158;24.732;2024-03-08T01:51:47;99826.31;;;6.57;100.00
8051;BME280;4068;42.158;24.732;2024-03-08T01:54:14;99836.75;;;6.59;100.00
8051;BME280;4068;42.158;24.732;2024-03-08T01:56:42;99834.03;;;6.60;100.00
8051;BME280;4068;42.158;24.732;2024-03-08T01:59:08;99813.38;;;6.52;100.00
8051;BME280;4068;42.158;24.732;2024-03-08T02:01:34;99826.38;;;6.55;100.00
8051;BME280;4068;42.158;24.732;2024-03-08T02:04:00;99821.97;;;6.56;100.00
8051;BME280;4068;42.158;24.732;2024-03-08T02:06:26;99825.53;;;6.55;100.00
8051;BME280;4068;42.158;24.732;2024-03-08T02:08:51;99834.13;;;6.59;100.00
8051;BME280;4068;42.158;24.732;2024-03-08T02:11:17;99832.91;;;6.64;100.00
8051;BME280;4068;42.158;24.732;2024-03-08T02:13:44;99803.97;;;6.48;100.00
8051;BME280;4068;42.158;24.732;2024-03-08T02:16:09;99830.22;;;6.50;100.00
8051;BME280;4068;42.158;24.732;2024-03-08T02:18:36;99829.28;;;6.51;100.00
8051;BME280;4068;42.158;24.732;2024-03-08T02:21:03;99827.22;;;6.56;100.00
8051;BME280;4068;42.158;24.732;2024-03-08T02:23:29;99828.25;;;6.53;100.00
8051;BME280;4068;42.158;24.732;2024-03-08T02:25:55;99834.03;;;6.60;100.00
8051;BME280;4068;42.158;24.732;2024-03-08T02:28:22;99831.94;;;6.65;100.00
8051;BME280;4068;42.158;24.732;2024-03-08T02:30:49;99840.97;;;6.61;100.00
8051;BME280;4068;42.158;24.732;2024-03-08T02:33:16;99829.31;;;6.65;100.00
8051;BME280;4068;42.158;24.732;2024-03-08T02:35:45;99829.31;;;6.65;100.00
8051;BME280;4068;42.158;24.732;2024-03-08T02:38:12;99834.22;;;6.57;100.00
8051;BME280;4068;42.158;24.732;2024-03-08T02:40:37;99834.75;;;6.62;100.00
8051;BME280;4068;42.158;24.732;2024-03-08T02:43:03;99835.53;;;6.64;100.00
8051;BME280;4068;42.158;24.732;2024-03-08T02:45:30;99838.31;;;6.61;100.00
8051;BME280;4068;42.158;24.732;2024-03-08T02:47:56;99836.34;;;6.50;100.00
8051;BME280;4068;42.158;24.732;2024-03-08T02:50:21;99838.53;;;6.58;100.00
8051;BME280;4068;42.158;24.732;2024-03-08T02:52:48;99838.53;;;6.58;100.00
8051;BME280;4068;42.158;24.732;2024-03-08T02:55:14;99836.16;;;6.53;100.00
8051;BME280;4068;42.158;24.732;2024-03-08T02:57:43;99835.31;;;6.53;100.00
8051;BME280;4068;42.158;24.732;2024-03-08T03:00:13;99837.28;;;6.49;100.00
8051;BME280;4068;42.158;24.732;2024-03-08T03:02:38;99835.56;;;6.48;100.00
8051;BME280;4068;42.158;24.732;2024-03-08T03:05:05;99837.94;;;6.38;100.00
8051;BME280;4068;42.158;24.732;2024-03-08T03:07:34;99844.47;;;6.31;100.00
8051;BME280;4068;42.158;24.732;2024-03-08T03:10:00;99849.34;;;6.23;100.00
8051;BME280;4068;42.158;24.732;2024-03-08T03:12:29;99845.94;;;6.21;100.00
8051;BME280;4068;42.158;24.732;2024-03-08T03:14:56;99838.56;;;6.12;100.00
8051;BME280;4068;42.158;24.732;2024-03-08T03:17:24;99853.28;;;6.16;100.00
8051;BME280;4068;42.158;24.732;2024-03-08T03:19:51;99846.03;;;6.19;100.00
8051;BME280;4068;42.158;24.732;2024-03-08T03:22:20;99853.00;;;6.20;100.00
8051;BME280;4068;42.158;24.732;2024-03-08T03:24:46;99848.94;;;6.15;100.00
8051;BME280;4068;42.158;24.732;2024-03-08T03:27:13;99820.22;;;5.94;100.00
8051;BME280;4068;42.158;24.732;2024-03-08T03:29:40;99848.84;;;6.16;100.00
8051;BME280;4068;42.158;24.732;2024-03-08T03:32:08;99854.53;;;6.25;100.00
8051;BME280;4068;42.158;24.732;2024-03-08T03:34:34;99839.59;;;6.09;100.00
8051;BME280;4068;42.158;24.732;2024-03-08T03:37:03;99857.28;;;6.07;100.00
8051;BME280;4068;42.158;24.732;2024-03-08T03:39:29;99849.63;;;6.02;100.00
8051;BME280;4068;42.158;24.732;2024-03-08T03:41:58;99861.09;;;6.01;100.00
8051;BME280;4068;42.158;24.732;2024-03-08T03:44:24;99855.66;;;6.04;100.00
8051;BME280;4068;42.158;24.732;2024-03-08T03:46:49;99867.72;;;6.09;100.00
8051;BME280;4068;42.158;24.732;2024-03-08T03:49:18;99866.28;;;6.03;100.00
8051;BME280;4068;42.158;24.732;2024-03-08T03:51:43;99858.47;;;6.01;100.00
8051;BME280;4068;42.158;24.732;2024-03-08T03:54:10;99849.06;;;5.97;100.00
8051;BME280;4068;42.158;24.732;2024-03-08T03:56:35;99866.66;;;6.11;100.00
8051;BME280;4068;42.158;24.732;2024-03-08T03:59:01;99862.47;;;6.09;100.00
8051;BME280;4068;42.158;24.732;2024-03-08T04:01:27;99858.94;;;5.92;100.00
8051;BME280;4068;42.158;24.732;2024-03-08T04:03:52;99844.53;;;5.83;100.00
8051;BME280;4068;42.158;24.732;2024-03-08T04:06:18;99868.56;;;5.93;100.00
8051;BME280;4068;42.158;24.732;2024-03-08T04:08:43;99833.84;;;5.70;100.00
8051;BME280;4068;42.158;24.732;2024-03-08T04:11:09;99867.78;;;5.91;100.00
8051;BME280;4068;42.158;24.732;2024-03-08T04:13:34;99833.84;;;5.70;100.00
8051;BME280;4068;42.158;24.732;2024-03-08T04:16:02;99875.75;;;5.90;100.00
8051;BME280;4068;42.158;24.732;2024-03-08T04:18:27;99871.50;;;5.87;100.00
8051;BME280;4068;42.158;24.732;2024-03-08T04:20:53;99861.41;;;5.79;100.00
8051;BME280;4068;42.158;24.732;2024-03-08T04:23:19;99876.53;;;5.92;100.00
8051;BME280;4068;42.158;24.732;2024-03-08T04:25:45;99835.69;;;5.68;100.00
8051;BME280;4068;42.158;24.732;2024-03-08T04:28:10;99877.63;;;5.87;100.00
8051;BME280;4068;42.158;24.732;2024-03-08T04:30:39;99844.09;;;5.75;100.00
8051;BME280;4068;42.158;24.732;2024-03-08T04:33:05;99881.63;;;5.95;100.00
8051;BME280;4068;42.158;24.732;2024-03-08T04:35:31;99886.28;;;5.90;100.00
8051;BME280;4068;42.158;24.732;2024-03-08T04:37:56;99881.63;;;5.79;100.00
8051;BME280;4068;42.158;24.732;2024-03-08T04:40:23;99888.56;;;5.80;100.00
8051;BME280;4068;42.158;24.732;2024-03-08T04:42:48;99861.59;;;5.60;100.00
8051;BME280;4068;42.158;24.732;2024-03-08T04:45:16;99869.41;;;5.62;100.00
8051;BME280;4068;42.158;24.732;2024-03-08T04:47:42;99880.41;;;5.68;100.00
8051;BME280;4068;42.158;24.732;2024-03-08T04:50:08;99883.75;;;5.56;100.00
8051;BME280;4068;42.158;24.732;2024-03-08T04:52:36;99863.50;;;5.41;100.00
8051;BME280;4068;42.158;24.732;2024-03-08T04:55:02;99880.16;;;5.57;100.00
8051;BME280;4068;42.158;24.732;2024-03-08T04:57:30;99874.66;;;5.46;100.00
8051;BME280;4068;42.158;24.732;2024-03-08T04:59:55;99897.16;;;5.67;100.00
8051;BME280;4068;42.158;24.732;2024-03-08T05:02:21;99897.47;;;5.61;100.00
8051;BME280;4068;42.158;24.732;2024-03-08T05:04:48;99895.88;;;5.59;100.00
8051;BME280;4068;42.158;24.732;2024-03-08T05:07:13;99891.38;;;5.61;100.00
8051;BME280;4068;42.158;24.732;2024-03-08T05:09:39;99902.75;;;5.61;100.00
8051;BME280;4068;42.158;24.732;2024-03-08T05:12:06;99899.88;;;5.66;100.00
8051;BME280;4068;42.158;24.732;2024-03-08T05:14:32;99880.84;;;5.61;100.00
8051;BME280;4068;42.158;24.732;2024-03-08T05:16:57;99902.44;;;5.67;100.00
8051;BME280;4068;42.158;24.732;2024-03-08T05:19:23;99909.22;;;5.72;100.00
8051;BME280;4068;42.158;24.732;2024-03-08T05:21:49;99912.94;;;5.67;100.00
8051;BME280;4068;42.158;24.732;2024-03-08T05:24:16;99913.84;;;5.50;100.00
8051;BME280;4068;42.158;24.732;2024-03-08T05:26:42;99918.16;;;5.51;100.00
8051;BME280;4068;42.158;24.732;2024-03-08T05:29:08;99926.00;;;5.53;100.00
8051;BME280;4068;42.158;24.732;2024-03-08T05:31:47;99928.56;;;5.55;100.00
8051;BME280;4068;42.158;24.732;2024-03-08T05:34:14;99928.75;;;5.67;100.00
8051;BME280;4068;42.158;24.732;2024-03-08T05:36:42;99926.34;;;5.63;100.00
8051;BME280;4068;42.158;24.732;2024-03-08T05:39:19;99905.59;;;5.41;100.00
8051;BME280;4068;42.158;24.732;2024-03-08T05:41:47;99931.25;;;5.53;100.00
8051;BME280;4068;42.158;24.732;2024-03-08T05:44:13;99927.47;;;5.41;100.00
8051;BME280;4068;42.158;24.732;2024-03-08T05:46:39;99951.53;;;5.51;100.00
8051;BME280;4068;42.158;24.732;2024-03-08T05:49:06;99911.25;;;5.33;100.00
8051;BME280;4068;42.158;24.732;2024-03-08T05:51:32;99949.63;;;5.70;100.00
8051;BME280;4068;42.158;24.732;2024-03-08T05:54:03;99951.66;;;5.81;100.00
8051;BME280;4068;42.158;24.732;2024-03-08T05:56:31;99957.69;;;5.83;100.00
8051;BME280;4068;42.158;24.732;2024-03-08T05:58:56;99953.09;;;5.87;100.00
8051;BME280;4068;42.158;24.732;2024-03-08T06:01:23;99956.34;;;5.92;100.00
8051;BME280;4068;42.158;24.732;2024-03-08T06:03:49;99959.09;;;6.07;100.00
8051;BME280;4068;42.158;24.732;2024-03-08T06:06:15;99963.97;;;6.14;100.00
8051;BME280;4068;42.158;24.732;2024-03-08T06:08:41;99967.88;;;6.23;100.00
8051;BME280;4068;42.158;24.732;2024-03-08T06:11:08;99943.91;;;6.12;100.00
8051;BME280;4068;42.158;24.732;2024-03-08T06:13:34;99962.75;;;6.36;100.00
8051;BME280;4068;42.158;24.732;2024-03-08T06:16:00;99976.00;;;6.50;100.00
8051;BME280;4068;42.158;24.732;2024-03-08T06:18:26;99974.13;;;6.52;100.00
8051;BME280;4068;42.158;24.732;2024-03-08T06:20:52;99975.91;;;6.52;100.00
8051;BME280;4068;42.158;24.732;2024-03-08T06:23:18;99989.25;;;6.49;100.00
8051;BME280;4068;42.158;24.732;2024-03-08T06:25:45;99985.19;;;6.43;100.00
8051;BME280;4068;42.158;24.732;2024-03-08T06:28:11;99983.81;;;6.52;100.00
8051;BME280;4068;42.158;24.732;2024-03-08T06:30:36;99993.25;;;6.56;100.00
8051;BME280;4068;42.158;24.732;2024-03-08T06:33:02;99990.63;;;6.56;100.00
8051;BME280;4068;42.158;24.732;2024-03-08T06:35:28;99988.72;;;6.58;100.00
8051;BME280;4068;42.158;24.732;2024-03-08T06:37:53;99968.94;;;6.51;100.00
8051;BME280;4068;42.158;24.732;2024-03-08T06:40:19;99992.72;;;6.65;100.00
8051;BME280;4068;42.158;24.732;2024-03-08T06:42:44;99962.41;;;6.42;100.00
8051;BME280;4068;42.158;24.732;2024-03-08T06:45:10;99995.25;;;6.67;100.00
8051;BME280;4068;42.158;24.732;2024-03-08T06:47:37;99997.88;;;6.83;100.00
8051;BME280;4068;42.158;24.732;2024-03-08T06:50:03;99992.44;;;6.86;100.00
8051;BME280;4068;42.158;24.732;2024-03-08T06:52:29;99961.94;;;6.66;100.00
8051;BME280;4068;42.158;24.732;2024-03-08T06:54:55;99994.38;;;6.82;100.00
8051;BME280;4068;42.158;24.732;2024-03-08T06:57:22;100004.09;;;6.82;100.00
8051;BME280;4068;42.158;24.732;2024-03-08T06:59:48;100002.44;;;6.95;100.00
8051;BME280;4068;42.158;24.732;2024-03-08T07:02:14;100006.91;;;7.09;100.00
8051;BME280;4068;42.158;24.732;2024-03-08T07:04:39;100012.47;;;7.04;100.00
8051;BME280;4068;42.158;24.732;2024-03-08T07:07:05;100018.44;;;6.92;100.00
8051;BME280;4068;42.158;24.732;2024-03-08T07:09:33;100009.97;;;6.71;100.00
8051;BME280;4068;42.158;24.732;2024-03-08T07:11:59;100000.91;;;6.91;100.00
8051;BME280;4068;42.158;24.732;2024-03-08T07:14:24;99996.59;;;6.90;100.00
8051;BME280;4068;42.158;24.732;2024-03-08T07:16:50;100010.00;;;7.01;100.00
8051;BME280;4068;42.158;24.732;2024-03-08T07:19:16;99979.34;;;6.84;100.00
8051;BME280;4068;42.158;24.732;2024-03-08T07:21:45;99997.06;;;6.97;100.00
8051;BME280;4068;42.158;24.732;2024-03-08T07:24:13;100020.81;;;7.27;100.00
8051;BME280;4068;42.158;24.732;2024-03-08T07:26:39;100010.47;;;7.08;100.00
8051;BME280;4068;42.158;24.732;2024-03-08T07:29:04;100027.72;;;7.14;100.00
8051;BME280;4068;42.158;24.732;2024-03-08T07:31:30;100007.75;;;6.79;100.00
8051;BME280;4068;42.158;24.732;2024-03-08T07:34:07;100027.28;;;6.91;100.00
8051;BME280;4068;42.158;24.732;2024-03-08T07:36:36;100003.16;;;6.83;100.00
8051;BME280;4068;42.158;24.732;2024-03-08T07:39:01;100029.06;;;6.90;100.00
8051;BME280;4068;42.158;24.732;2024-03-08T07:41:27;100029.91;;;7.07;100.00
8051;BME280;4068;42.158;24.732;2024-03-08T07:43:54;100032.78;;;7.33;100.00
8051;BME280;4068;42.158;24.732;2024-03-08T07:46:19;99996.50;;;7.36;100.00
8051;BME280;4068;42.158;24.732;2024-03-08T07:48:45;100028.69;;;7.72;100.00
8051;BME280;4068;42.158;24.732;2024-03-08T07:51:11;99995.28;;;7.56;100.00
8051;BME280;4068;42.158;24.732;2024-03-08T07:53:37;100035.47;;;8.05;100.00
8051;BME280;4068;42.158;24.732;2024-03-08T07:56:04;100040.50;;;8.09;100.00
8051;BME280;4068;42.158;24.732;2024-03-08T07:58:34;100038.78;;;8.23;100.00
8051;BME280;4068;42.158;24.732;2024-03-08T08:01:00;100041.63;;;8.20;100.00
8051;BME280;4068;42.158;24.732;2024-03-08T08:03:26;100045.38;;;8.30;100.00
8051;BME280;4068;42.158;24.732;2024-03-08T08:05:52;100053.56;;;8.54;100.00
8051;BME280;4068;42.158;24.732;2024-03-08T08:08:18;100053.06;;;8.62;100.00
8051;BME280;4068;42.158;24.732;2024-03-08T08:10:44;100064.94;;;8.84;100.00
8051;BME280;4068;42.158;24.732;2024-03-08T08:13:09;100059.47;;;8.72;100.00
8051;BME280;4068;42.158;24.732;2024-03-08T08:15:35;100043.63;;;8.58;100.00
8051;BME280;4068;42.158;24.732;2024-03-08T08:18:00;100040.91;;;8.59;100.00
8051;BME280;4068;42.158;24.732;2024-03-08T08:20:27;100060.97;;;9.04;100.00
8051;BME280;4068;42.158;24.732;2024-03-08T08:22:54;100073.06;;;9.08;100.00
8051;BME280;4068;42.158;24.732;2024-03-08T08:25:20;100069.84;;;9.03;100.00
8051;BME280;4068;42.158;24.732;2024-03-08T08:27:46;100069.69;;;9.19;100.00
8051;BME280;4068;42.158;24.732;2024-03-08T08:30:12;100071.91;;;9.25;100.00
8051;BME280;4068;42.158;24.732;2024-03-08T08:32:39;100072.50;;;9.43;100.00
8051;BME280;4068;42.158;24.732;2024-03-08T08:35:08;100073.28;;;9.71;100.00
8051;BME280;4068;42.158;24.732;2024-03-08T08:37:35;100074.63;;;9.50;100.00
8051;BME280;4068;42.158;24.732;2024-03-08T08:40:03;100069.38;;;9.23;100.00
8051;BME280;4068;42.158;24.732;2024-03-08T08:42:35;100072.66;;;9.27;100.00
8051;BME280;4068;42.158;24.732;2024-03-08T08:45:01;100078.63;;;9.03;100.00
8051;BME280;4068;42.158;24.732;2024-03-08T08:47:27;100049.34;;;8.79;100.00
8051;BME280;4068;42.158;24.732;2024-03-08T08:49:52;100046.53;;;8.95;100.00
8051;BME280;4068;42.158;24.732;2024-03-08T08:52:19;100066.94;;;9.20;100.00
8051;BME280;4068;42.158;24.732;2024-03-08T08:54:45;100072.47;;;9.30;100.00
8051;BME280;4068;42.158;24.732;2024-03-08T08:57:10;100075.94;;;9.30;100.00
8051;BME280;4068;42.158;24.732;2024-03-08T08:59:36;100054.22;;;9.12;100.00
8051;BME280;4068;42.158;24.732;2024-03-08T09:02:02;100067.97;;;9.18;100.00
8051;BME280;4068;42.158;24.732;2024-03-08T09:04:29;100058.50;;;9.28;100.00
8051;BME280;4068;42.158;24.732;2024-03-08T09:06:56;100071.13;;;9.63;100.00
8051;BME280;4068;42.158;24.732;2024-03-08T09:09:22;100067.88;;;9.98;100.00
8051;BME280;4068;42.158;24.732;2024-03-08T09:11:48;100060.03;;;9.96;100.00
8051;BME280;4068;42.158;24.732;2024-03-08T09:14:15;100073.72;;;10.53;100.00
8051;BME280;4068;42.158;24.732;2024-03-08T09:16:40;100084.81;;;10.71;100.00
8051;BME280;4068;42.158;24.732;2024-03-08T09:19:06;100077.66;;;11.09;100.00
8051;BME280;4068;42.158;24.732;2024-03-08T09:21:34;100047.41;;;10.87;100.00
8051;BME280;4068;42.158;24.732;2024-03-08T09:24:01;100044.34;;;11.29;100.00
8051;BME280;4068;42.158;24.732;2024-03-08T09:26:26;100059.06;;;11.44;100.00
8051;BME280;4068;42.158;24.732;2024-03-08T09:28:52;100068.50;;;11.48;100.00
8051;BME280;4068;42.158;24.732;2024-03-08T09:31:20;100051.75;;;11.12;100.00
8051;BME280;4068;42.158;24.732;2024-03-08T09:33:46;100053.41;;;11.37;100.00
8051;BME280;4068;42.158;24.732;2024-03-08T09:36:12;100075.50;;;11.38;100.00
8051;BME280;4068;42.158;24.732;2024-03-08T09:38:39;100077.19;;;11.39;100.00
8051;BME280;4068;42.158;24.732;2024-03-08T09:41:05;100050.34;;;10.71;100.00
8051;BME280;4068;42.158;24.732;2024-03-08T09:43:30;100065.25;;;10.61;100.00
8051;BME280;4068;42.158;24.732;2024-03-08T09:45:57;100040.66;;;10.33;100.00
8051;BME280;4068;42.158;24.732;2024-03-08T09:48:22;100066.59;;;10.66;100.00
8051;BME280;4068;42.158;24.732;2024-03-08T09:50:48;100056.53;;;10.83;100.00
8051;BME280;4068;42.158;24.732;2024-03-08T09:53:14;100064.56;;;10.94;100.00
8051;BME280;4068;42.158;24.732;2024-03-08T09:55:40;100055.19;;;11.01;100.00
8051;BME280;4068;42.158;24.732;2024-03-08T09:58:14;100068.19;;;10.93;100.00
8051;BME280;4068;42.158;24.732;2024-03-08T10:00:52;100059.53;;;10.54;100.00
8051;BME280;4068;42.158;24.732;2024-03-08T10:03:19;100060.66;;;10.63;100.00
8051;BME280;4068;42.158;24.732;2024-03-08T10:05:45;100054.78;;;10.46;100.00
8051;BME280;4068;42.158;24.732;2024-03-08T10:08:11;100055.09;;;10.55;100.00
8051;BME280;4068;42.158;24.732;2024-03-08T10:10:39;100049.44;;;10.59;100.00
8051;BME280;4068;42.158;24.732;2024-03-08T10:13:08;100051.03;;;10.62;100.00
8051;BME280;4068;42.158;24.732;2024-03-08T10:15:35;100053.25;;;10.55;100.00
8051;BME280;4068;42.158;24.732;2024-03-08T10:18:00;100055.13;;;10.66;100.00
8051;BME280;4068;42.158;24.732;2024-03-08T10:20:28;100051.69;;;11.01;100.00
8051;BME280;4068;42.158;24.732;2024-03-08T10:22:59;100017.31;;;10.99;100.00
8051;BME280;4068;42.158;24.732;2024-03-08T10:25:25;100049.69;;;11.04;100.00
8051;BME280;4068;42.158;24.732;2024-03-08T10:27:50;100016.34;;;11.00;100.00
8051;BME280;4068;42.158;24.732;2024-03-08T10:30:16;100055.47;;;11.45;100.00
8051;BME280;4068;42.158;24.732;2024-03-08T10:32:46;100033.88;;;11.61;99.43
8051;BME280;4068;42.158;24.732;2024-03-08T10:35:12;100052.84;;;11.56;97.49
8051;BME280;4068;42.158;24.732;2024-03-08T10:37:49;100009.00;;;11.51;99.48
8051;BME280;4068;42.158;24.732;2024-03-08T10:40:29;100036.16;;;11.43;97.83
8051;BME280;4068;42.158;24.732;2024-03-08T10:42:56;100028.19;;;11.43;99.14
8051;BME280;4068;42.158;24.732;2024-03-08T10:45:33;100032.00;;;11.28;98.57
8051;BME280;4068;42.158;24.732;2024-03-08T10:50:53;100029.84;;;11.33;98.14
8051;BME280;4068;42.158;24.732;2024-03-08T10:53:19;100025.47;;;11.79;98.83
8051;BME280;4068;42.158;24.732;2024-03-08T10:55:49;99995.38;;;11.89;96.17
8051;BME280;4068;42.158;24.732;2024-03-08T10:58:15;100024.41;;;12.04;95.67
8051;BME280;4068;42.158;24.732;2024-03-08T11:00:42;100005.78;;;11.92;94.88
8051;BME280;4068;42.158;24.732;2024-03-08T11:06:05;100014.47;;;12.84;90.56
8051;BME280;4068;42.158;24.732;2024-03-08T11:08:31;100013.53;;;13.06;89.83
8051;BME280;4068;42.158;24.732;2024-03-08T11:10:59;100011.25;;;13.22;89.29
8051;BME280;4068;42.158;24.732;2024-03-08T11:16:00;100005.50;;;12.85;91.08
8051;BME280;4068;42.158;24.732;2024-03-08T11:18:26;100003.38;;;12.78;91.63
8051;BME280;4068;42.158;24.732;2024-03-08T11:20:55;100003.19;;;12.59;93.24
8051;BME280;4068;42.158;24.732;2024-03-08T11:23:23;99966.34;;;12.43;91.08
8051;BME280;4068;42.158;24.732;2024-03-08T11:25:49;99975.44;;;12.73;90.83
8051;BME280;4068;42.158;24.732;2024-03-08T11:28:23;100002.03;;;13.05;89.48
8051;BME280;4068;42.158;24.732;2024-03-08T11:33:24;100007.59;;;13.35;88.56
8051;BME280;4068;42.158;24.732;2024-03-08T11:35:51;99998.19;;;13.83;88.32
8051;BME280;4068;42.158;24.732;2024-03-08T11:38:17;100005.56;;;13.69;85.01
8051;BME280;4068;42.158;24.732;2024-03-08T11:40:46;99983.28;;;13.49;87.57
8051;BME280;4068;42.158;24.732;2024-03-08T11:43:16;100001.25;;;13.47;85.46
8051;BME280;4068;42.158;24.732;2024-03-08T11:45:41;100002.84;;;13.17;87.06
8051;BME280;4068;42.158;24.732;2024-03-08T11:48:07;99999.84;;;13.32;86.63
8051;BME280;4068;42.158;24.732;2024-03-08T11:50:33;99988.56;;;13.39;87.21
8051;BME280;4068;42.158;24.732;2024-03-08T11:53:03;99993.25;;;12.93;89.95
8051;BME280;4068;42.158;24.732;2024-03-08T11:55:30;99995.25;;;12.80;88.49
8051;BME280;4068;42.158;24.732;2024-03-08T11:58:01;99982.28;;;13.08;86.96
8051;BME280;4068;42.158;24.732;2024-03-08T12:00:34;99979.22;;;13.34;86.85
8051;BME280;4068;42.158;24.732;2024-03-08T12:03:05;99985.81;;;13.08;86.81
8051;BME280;4068;42.158;24.732;2024-03-08T12:05:32;99979.16;;;12.82;87.45
8051;BME280;4068;42.158;24.732;2024-03-08T12:07:59;99962.06;;;12.63;88.45
8051;BME280;4068;42.158;24.732;2024-03-08T12:10:24;99981.63;;;12.62;87.20
8051;BME280;4068;42.158;24.732;2024-03-08T12:12:54;99981.09;;;12.47;87.78
8051;BME280;4068;42.158;24.732;2024-03-08T12:15:24;99978.50;;;12.02;90.13
8051;BME280;4068;42.158;24.732;2024-03-08T12:17:51;99982.00;;;12.14;91.74
8051;BME280;4068;42.158;24.732;2024-03-08T12:20:18;99980.31;;;12.01;91.51
8051;BME280;4068;42.158;24.732;2024-03-08T12:22:44;99980.63;;;11.63;94.70
8051;BME280;4068;42.158;24.732;2024-03-08T12:25:13;99975.69;;;11.81;94.64
8051;BME280;4068;42.158;24.732;2024-03-08T12:27:43;99971.34;;;11.68;94.54
8051;BME280;4068;42.158;24.732;2024-03-08T12:30:25;99940.91;;;11.50;94.38
8051;BME280;4068;42.158;24.732;2024-03-08T12:32:56;99963.63;;;11.77;95.84
8051;BME280;4068;42.158;24.732;2024-03-08T12:35:26;99967.09;;;11.88;94.54
8051;BME280;4068;42.158;24.732;2024-03-08T12:37:53;99962.06;;;11.97;92.09
8051;BME280;4068;42.158;24.732;2024-03-08T12:40:31;99964.56;;;11.64;94.19
8051;BME280;4068;42.158;24.732;2024-03-08T12:43:01;99953.13;;;11.75;93.16
8051;BME280;4068;42.158;24.732;2024-03-08T12:45:31;99947.00;;;11.97;92.25
8051;BME280;4068;42.158;24.732;2024-03-08T12:47:58;99959.03;;;12.13;92.49
8051;BME280;4068;42.158;24.732;2024-03-08T12:50:25;99956.13;;;12.27;90.65
8051;BME280;4068;42.158;24.732;2024-03-08T12:52:50;99942.22;;;11.89;92.06
8051;BME280;4068;42.158;24.732;2024-03-08T12:55:18;99948.16;;;11.93;92.33
8051;BME280;4068;42.158;24.732;2024-03-08T12:57:44;99956.72;;;11.63;93.16
8051;BME280;4068;42.158;24.732;2024-03-08T13:00:11;99947.56;;;11.67;91.87
8051;BME280;4068;42.158;24.732;2024-03-08T13:02:47;99966.69;;;11.95;90.58
8051;BME280;4068;42.158;24.732;2024-03-08T13:05:13;99968.13;;;12.10;89.44
8051;BME280;4068;42.158;24.732;2024-03-08T13:07:42;99959.13;;;11.88;89.44
8051;BME280;4068;42.158;24.732;2024-03-08T13:10:12;99928.00;;;11.68;91.58
8051;BME280;4068;42.158;24.732;2024-03-08T13:12:43;99950.56;;;11.39;93.11
8051;BME280;4068;42.158;24.732;2024-03-08T13:15:09;99932.63;;;10.96;93.23
8051;BME280;4068;42.158;24.732;2024-03-08T13:17:46;99943.53;;;11.27;94.25